< < Back
Terminal Aerodrome Forecast


Current Version              Previous Versions:   1  2  3  4  5  6  7  8  9  

Terminal Aerodrome Forecast

761
FTUS42 KFFC 230300 AAA
TAFPDK
TAF AMD
KPDK 230332Z 2304/2324 33003KT P6SM SKC
     FM231600 32005KT P6SM SKC=

Latest METAR

800
SAUS70 KWBC 230600 RRB
MTRPDK
METAR KPDK 230553Z AUTO 36003KT 10SM CLR 08/04 A3010 RMK AO2 SLP193
T00780044 10144 20072 58004


USA.gov is the U.S. government's official web portal to all federal, state and local government web resources and services.